OOCL Atlanta — VRAR6 — position and weather

sailwx.info

Track history (hours):
 
Tides and Currents Weather Stations Pressure Air Temp Water Temp Dewpoint Dewpoint Depression Visibility Wind Speed Wind Dir Waves Ship Positions

OOCL Atlanta

Last reported at 2017-Feb-14 18:30 UTC. Time now 2017-Feb-20 04:47 UTC.
Position N 35°13' W 025°32'.

Length 323 m; beam 42.8 m; draft 14.5 m.

Type: Cargo ship. MMSI: 477920300.

Date/timePositionNaut miles runAvg speedWind from/ knotsBaromVisibWave heightAir tempDewpointWater temp
2017-Feb-14 18:30N 35°13' W 025°32'1920.1
2017-Feb-14 17:33N 35°15' W 025°09'2020.2
2017-Feb-14 16:33N 35°18' W 024°44'6019.9
2017-Feb-14 13:33N 35°25' W 023°31'86419.5
2017-Feb-12 17:17N 35°57' W 005°48'1318.0
2017-Feb-12 16:33N 35°59' W 005°32'1817.8
2017-Feb-12 15:33N 36°03' W 005°10'1818.3
2017-Feb-12 14:33N 36°06' W 004°48'50319.3
2017-Feb-11 12:33N 37°20' E 005°32'1919.3
2017-Feb-11 11:33N 37°22' E 005°57'2019.3
2017-Feb-11 10:31N 37°25' E 006°21'34418.8
2017-Feb-10 16:13N 36°39' E 013°29'1520.0
2017-Feb-10 15:28N 36°34' E 013°47'1819.7
2017-Feb-10 14:33N 36°29' E 014°08'2019.9
2017-Feb-10 13:33N 36°24' E 014°32'2020.0
2017-Feb-10 12:33N 36°20' E 014°56'  
Track history (hours):
 
Tides and Currents Weather Stations Pressure Air Temp Water Temp Dewpoint Dewpoint Depression Visibility Wind Speed Wind Dir Waves Ship Positions

OOCL Atlanta

Last reported at 2017-Feb-14 18:30 UTC. Time now 2017-Feb-20 04:47 UTC.
Position N 35°13' W 025°32'.

Length 323 m; beam 42.8 m; draft 14.5 m.

Type: Cargo ship. MMSI: 477920300.

Date/timePositionNaut miles runAvg speedWind from/ knotsBaromVisibWave heightAir tempDewpointWater temp
2017-Feb-14 18:30N 35°13' W 025°32'1920.1
2017-Feb-14 17:33N 35°15' W 025°09'2020.2
2017-Feb-14 16:33N 35°18' W 024°44'6019.9
2017-Feb-14 13:33N 35°25' W 023°31'86419.5
2017-Feb-12 17:17N 35°57' W 005°48'1318.0
2017-Feb-12 16:33N 35°59' W 005°32'1817.8
2017-Feb-12 15:33N 36°03' W 005°10'1818.3
2017-Feb-12 14:33N 36°06' W 004°48'50319.3
2017-Feb-11 12:33N 37°20' E 005°32'1919.3
2017-Feb-11 11:33N 37°22' E 005°57'2019.3
2017-Feb-11 10:31N 37°25' E 006°21'34418.8
2017-Feb-10 16:13N 36°39' E 013°29'1520.0
2017-Feb-10 15:28N 36°34' E 013°47'1819.7
2017-Feb-10 14:33N 36°29' E 014°08'2019.9
2017-Feb-10 13:33N 36°24' E 014°32'2020.0
2017-Feb-10 12:33N 36°20' E 014°56'  

Dump ship's entire track history